sensor_id;sensor_type;location;lat;lon;timestamp;P1;durP1;ratioP1;P2;durP2;ratioP2
67065;SDS011;53978;43.846;25.952;2023-12-07T00:00:47;5.18;;;3.45;;
67065;SDS011;53978;43.846;25.952;2023-12-07T00:03:14;5.15;;;3.45;;
67065;SDS011;53978;43.846;25.952;2023-12-07T00:05:40;7.05;;;4.50;;
67065;SDS011;53978;43.846;25.952;2023-12-07T00:08:08;5.18;;;3.25;;
67065;SDS011;53978;43.846;25.952;2023-12-07T00:10:34;5.40;;;3.10;;
67065;SDS011;53978;43.846;25.952;2023-12-07T00:13:01;5.50;;;3.72;;
67065;SDS011;53978;43.846;25.952;2023-12-07T00:15:26;6.55;;;3.75;;
67065;SDS011;53978;43.846;25.952;2023-12-07T00:17:52;6.65;;;3.83;;
67065;SDS011;53978;43.846;25.952;2023-12-07T00:20:17;5.70;;;3.58;;
67065;SDS011;53978;43.846;25.952;2023-12-07T00:22:43;6.03;;;3.40;;
67065;SDS011;53978;43.846;25.952;2023-12-07T00:25:08;5.72;;;3.25;;
67065;SDS011;53978;43.846;25.952;2023-12-07T00:27:34;5.55;;;3.67;;
67065;SDS011;53978;43.846;25.952;2023-12-07T00:29:59;5.20;;;3.60;;
67065;SDS011;53978;43.846;25.952;2023-12-07T00:32:25;6.07;;;3.45;;
67065;SDS011;53978;43.846;25.952;2023-12-07T00:34:52;5.45;;;3.03;;
67065;SDS011;53978;43.846;25.952;2023-12-07T00:37:18;3.83;;;3.00;;
67065;SDS011;53978;43.846;25.952;2023-12-07T00:39:44;5.30;;;3.80;;
67065;SDS011;53978;43.846;25.952;2023-12-07T00:42:10;8.05;;;3.33;;
67065;SDS011;53978;43.846;25.952;2023-12-07T00:44:39;4.55;;;3.05;;
67065;SDS011;53978;43.846;25.952;2023-12-07T00:47:06;4.70;;;3.22;;
67065;SDS011;53978;43.846;25.952;2023-12-07T00:49:32;4.30;;;3.10;;
67065;SDS011;53978;43.846;25.952;2023-12-07T00:51:58;5.97;;;4.03;;
67065;SDS011;53978;43.846;25.952;2023-12-07T00:54:23;5.30;;;3.65;;
67065;SDS011;53978;43.846;25.952;2023-12-07T00:56:48;6.57;;;3.92;;
67065;SDS011;53978;43.846;25.952;2023-12-07T00:59:16;4.32;;;3.20;;
67065;SDS011;53978;43.846;25.952;2023-12-07T01:01:41;7.90;;;4.10;;
67065;SDS011;53978;43.846;25.952;2023-12-07T01:04:09;7.93;;;3.78;;
67065;SDS011;53978;43.846;25.952;2023-12-07T01:06:34;6.47;;;3.58;;
67065;SDS011;53978;43.846;25.952;2023-12-07T01:09:00;7.75;;;4.03;;
67065;SDS011;53978;43.846;25.952;2023-12-07T01:11:26;5.78;;;3.78;;
67065;SDS011;53978;43.846;25.952;2023-12-07T01:13:52;5.28;;;3.33;;
67065;SDS011;53978;43.846;25.952;2023-12-07T01:16:18;4.28;;;3.10;;
67065;SDS011;53978;43.846;25.952;2023-12-07T01:18:43;4.85;;;3.13;;
67065;SDS011;53978;43.846;25.952;2023-12-07T01:21:09;4.78;;;3.55;;
67065;SDS011;53978;43.846;25.952;2023-12-07T01:23:35;5.85;;;3.63;;
67065;SDS011;53978;43.846;25.952;2023-12-07T01:26:01;5.03;;;3.67;;
67065;SDS011;53978;43.846;25.952;2023-12-07T01:28:28;5.80;;;3.70;;
67065;SDS011;53978;43.846;25.952;2023-12-07T01:30:54;5.68;;;3.38;;
67065;SDS011;53978;43.846;25.952;2023-12-07T01:33:21;9.73;;;4.28;;
67065;SDS011;53978;43.846;25.952;2023-12-07T01:35:47;7.63;;;3.90;;
67065;SDS011;53978;43.846;25.952;2023-12-07T01:38:12;4.05;;;3.13;;
67065;SDS011;53978;43.846;25.952;2023-12-07T01:40:38;9.45;;;4.47;;
67065;SDS011;53978;43.846;25.952;2023-12-07T01:43:04;11.98;;;4.13;;
67065;SDS011;53978;43.846;25.952;2023-12-07T01:45:29;7.65;;;4.25;;
67065;SDS011;53978;43.846;25.952;2023-12-07T01:47:55;6.75;;;4.32;;
67065;SDS011;53978;43.846;25.952;2023-12-07T01:50:21;7.25;;;4.10;;
67065;SDS011;53978;43.846;25.952;2023-12-07T01:52:48;6.72;;;4.93;;
67065;SDS011;53978;43.846;25.952;2023-12-07T01:55:15;7.93;;;3.78;;
67065;SDS011;53978;43.846;25.952;2023-12-07T01:57:42;6.72;;;4.55;;
67065;SDS011;53978;43.846;25.952;2023-12-07T02:00:08;7.30;;;4.18;;
67065;SDS011;53978;43.846;25.952;2023-12-07T02:02:35;7.60;;;4.28;;
67065;SDS011;53978;43.846;25.952;2023-12-07T02:05:01;6.35;;;3.50;;
67065;SDS011;53978;43.846;25.952;2023-12-07T02:07:27;6.78;;;3.60;;
67065;SDS011;53978;43.846;25.952;2023-12-07T02:09:52;6.38;;;3.03;;
67065;SDS011;53978;43.846;25.952;2023-12-07T02:12:20;6.32;;;3.65;;
67065;SDS011;53978;43.846;25.952;2023-12-07T02:14:46;4.88;;;3.10;;
67065;SDS011;53978;43.846;25.952;2023-12-07T02:17:24;4.82;;;3.40;;
67065;SDS011;53978;43.846;25.952;2023-12-07T02:20:05;8.02;;;3.25;;
67065;SDS011;53978;43.846;25.952;2023-12-07T02:22:37;6.20;;;3.58;;
67065;SDS011;53978;43.846;25.952;2023-12-07T02:25:08;7.30;;;3.28;;
67065;SDS011;53978;43.846;25.952;2023-12-07T02:30:00;5.72;;;2.90;;
67065;SDS011;53978;43.846;25.952;2023-12-07T02:32:26;5.25;;;3.25;;
67065;SDS011;53978;43.846;25.952;2023-12-07T02:34:51;8.45;;;4.20;;
67065;SDS011;53978;43.846;25.952;2023-12-07T02:37:20;5.53;;;3.28;;
67065;SDS011;53978;43.846;25.952;2023-12-07T02:39:47;4.68;;;2.88;;
67065;SDS011;53978;43.846;25.952;2023-12-07T02:42:13;7.57;;;4.30;;
67065;SDS011;53978;43.846;25.952;2023-12-07T02:44:39;4.85;;;3.40;;
67065;SDS011;53978;43.846;25.952;2023-12-07T02:47:05;4.85;;;2.95;;
67065;SDS011;53978;43.846;25.952;2023-12-07T02:49:31;3.17;;;2.22;;
67065;SDS011;53978;43.846;25.952;2023-12-07T02:51:56;4.97;;;2.85;;
67065;SDS011;53978;43.846;25.952;2023-12-07T02:54:23;5.30;;;3.20;;
67065;SDS011;53978;43.846;25.952;2023-12-07T02:56:48;6.78;;;3.33;;
67065;SDS011;53978;43.846;25.952;2023-12-07T02:59:14;3.78;;;2.85;;
67065;SDS011;53978;43.846;25.952;2023-12-07T03:01:39;5.93;;;3.20;;
67065;SDS011;53978;43.846;25.952;2023-12-07T03:04:04;10.00;;;3.08;;
67065;SDS011;53978;43.846;25.952;2023-12-07T03:06:30;3.95;;;2.58;;
67065;SDS011;53978;43.846;25.952;2023-12-07T03:08:55;4.25;;;2.78;;
67065;SDS011;53978;43.846;25.952;2023-12-07T03:11:21;4.65;;;2.70;;
67065;SDS011;53978;43.846;25.952;2023-12-07T03:13:47;2.00;;;1.73;;
67065;SDS011;53978;43.846;25.952;2023-12-07T03:16:12;4.20;;;2.70;;
67065;SDS011;53978;43.846;25.952;2023-12-07T03:18:38;3.28;;;1.88;;
67065;SDS011;53978;43.846;25.952;2023-12-07T03:21:03;6.03;;;2.65;;
67065;SDS011;53978;43.846;25.952;2023-12-07T03:23:29;3.53;;;2.50;;
67065;SDS011;53978;43.846;25.952;2023-12-07T03:25:55;4.93;;;2.53;;
67065;SDS011;53978;43.846;25.952;2023-12-07T03:28:20;2.88;;;2.05;;
67065;SDS011;53978;43.846;25.952;2023-12-07T03:30:46;4.60;;;2.85;;
67065;SDS011;53978;43.846;25.952;2023-12-07T03:33:11;2.38;;;2.08;;
67065;SDS011;53978;43.846;25.952;2023-12-07T03:35:37;3.40;;;2.10;;
67065;SDS011;53978;43.846;25.952;2023-12-07T03:38:03;2.10;;;1.63;;
67065;SDS011;53978;43.846;25.952;2023-12-07T03:40:28;3.13;;;2.15;;
67065;SDS011;53978;43.846;25.952;2023-12-07T03:42:53;3.15;;;1.95;;
67065;SDS011;53978;43.846;25.952;2023-12-07T03:45:19;3.80;;;2.22;;
67065;SDS011;53978;43.846;25.952;2023-12-07T03:47:46;3.45;;;2.08;;
67065;SDS011;53978;43.846;25.952;2023-12-07T03:50:12;3.28;;;2.30;;
67065;SDS011;53978;43.846;25.952;2023-12-07T03:52:37;3.53;;;2.40;;
67065;SDS011;53978;43.846;25.952;2023-12-07T03:55:02;3.70;;;2.25;;
67065;SDS011;53978;43.846;25.952;2023-12-07T03:57:28;7.85;;;2.22;;
67065;SDS011;53978;43.846;25.952;2023-12-07T03:59:53;3.28;;;2.22;;
67065;SDS011;53978;43.846;25.952;2023-12-07T04:02:19;2.63;;;2.30;;
67065;SDS011;53978;43.846;25.952;2023-12-07T04:04:44;2.83;;;2.08;;
67065;SDS011;53978;43.846;25.952;2023-12-07T04:07:10;2.67;;;2.00;;
67065;SDS011;53978;43.846;25.952;2023-12-07T04:09:39;3.50;;;2.20;;
67065;SDS011;53978;43.846;25.952;2023-12-07T04:12:04;3.65;;;2.08;;
67065;SDS011;53978;43.846;25.952;2023-12-07T04:14:30;4.15;;;2.20;;
67065;SDS011;53978;43.846;25.952;2023-12-07T04:16:57;4.25;;;2.78;;
67065;SDS011;53978;43.846;25.952;2023-12-07T04:19:22;5.40;;;2.83;;
67065;SDS011;53978;43.846;25.952;2023-12-07T04:21:48;4.22;;;2.35;;
67065;SDS011;53978;43.846;25.952;2023-12-07T04:24:13;5.60;;;2.38;;
67065;SDS011;53978;43.846;25.952;2023-12-07T04:26:39;3.55;;;2.58;;
67065;SDS011;53978;43.846;25.952;2023-12-07T04:29:07;2.85;;;2.10;;
67065;SDS011;53978;43.846;25.952;2023-12-07T04:31:32;3.38;;;2.40;;
67065;SDS011;53978;43.846;25.952;2023-12-07T04:34:01;5.25;;;2.47;;
67065;SDS011;53978;43.846;25.952;2023-12-07T04:36:26;3.28;;;2.08;;
67065;SDS011;53978;43.846;25.952;2023-12-07T04:38:52;4.35;;;2.58;;
67065;SDS011;53978;43.846;25.952;2023-12-07T04:41:17;2.67;;;2.08;;
67065;SDS011;53978;43.846;25.952;2023-12-07T04:43:43;3.72;;;2.30;;
67065;SDS011;53978;43.846;25.952;2023-12-07T04:46:08;3.38;;;2.42;;
67065;SDS011;53978;43.846;25.952;2023-12-07T04:48:34;3.33;;;2.38;;
67065;SDS011;53978;43.846;25.952;2023-12-07T04:51:01;3.83;;;2.08;;
67065;SDS011;53978;43.846;25.952;2023-12-07T04:53:26;3.38;;;2.15;;
67065;SDS011;53978;43.846;25.952;2023-12-07T04:55:51;2.92;;;1.90;;
67065;SDS011;53978;43.846;25.952;2023-12-07T04:58:18;3.88;;;2.05;;
67065;SDS011;53978;43.846;25.952;2023-12-07T05:00:45;4.00;;;2.38;;
67065;SDS011;53978;43.846;25.952;2023-12-07T05:03:11;4.00;;;2.40;;
67065;SDS011;53978;43.846;25.952;2023-12-07T05:05:36;4.72;;;2.40;;
67065;SDS011;53978;43.846;25.952;2023-12-07T05:08:01;4.70;;;2.00;;
67065;SDS011;53978;43.846;25.952;2023-12-07T05:10:29;4.13;;;2.13;;
67065;SDS011;53978;43.846;25.952;2023-12-07T05:12:55;4.50;;;1.80;;
67065;SDS011;53978;43.846;25.952;2023-12-07T05:15:22;3.42;;;2.40;;
67065;SDS011;53978;43.846;25.952;2023-12-07T05:17:50;3.38;;;2.15;;
67065;SDS011;53978;43.846;25.952;2023-12-07T05:20:17;2.13;;;1.77;;
67065;SDS011;53978;43.846;25.952;2023-12-07T05:22:47;3.53;;;2.00;;
67065;SDS011;53978;43.846;25.952;2023-12-07T05:25:13;3.40;;;2.17;;
67065;SDS011;53978;43.846;25.952;2023-12-07T05:27:38;4.00;;;2.20;;
67065;SDS011;53978;43.846;25.952;2023-12-07T05:30:04;4.28;;;2.67;;
67065;SDS011;53978;43.846;25.952;2023-12-07T05:32:30;2.78;;;2.20;;
67065;SDS011;53978;43.846;25.952;2023-12-07T05:34:55;3.47;;;2.08;;
67065;SDS011;53978;43.846;25.952;2023-12-07T05:37:21;3.65;;;1.92;;
67065;SDS011;53978;43.846;25.952;2023-12-07T05:39:46;3.92;;;2.25;;
67065;SDS011;53978;43.846;25.952;2023-12-07T05:42:12;2.78;;;2.13;;
67065;SDS011;53978;43.846;25.952;2023-12-07T05:44:37;4.55;;;1.95;;
67065;SDS011;53978;43.846;25.952;2023-12-07T05:47:03;7.07;;;2.80;;
67065;SDS011;53978;43.846;25.952;2023-12-07T05:49:29;7.80;;;3.75;;
67065;SDS011;53978;43.846;25.952;2023-12-07T05:51:54;8.90;;;4.68;;
67065;SDS011;53978;43.846;25.952;2023-12-07T05:54:21;3.75;;;2.63;;
67065;SDS011;53978;43.846;25.952;2023-12-07T05:56:47;8.25;;;4.70;;
67065;SDS011;53978;43.846;25.952;2023-12-07T05:59:13;6.05;;;3.13;;
67065;SDS011;53978;43.846;25.952;2023-12-07T06:01:38;4.57;;;2.97;;
67065;SDS011;53978;43.846;25.952;2023-12-07T06:04:03;6.25;;;3.08;;
67065;SDS011;53978;43.846;25.952;2023-12-07T06:06:31;4.47;;;2.90;;
67065;SDS011;53978;43.846;25.952;2023-12-07T06:08:56;4.00;;;2.42;;
67065;SDS011;53978;43.846;25.952;2023-12-07T06:11:21;3.60;;;2.35;;
67065;SDS011;53978;43.846;25.952;2023-12-07T06:13:47;3.35;;;2.20;;
67065;SDS011;53978;43.846;25.952;2023-12-07T06:16:12;2.97;;;2.35;;
67065;SDS011;53978;43.846;25.952;2023-12-07T06:18:39;4.28;;;2.17;;
67065;SDS011;53978;43.846;25.952;2023-12-07T06:21:06;2.70;;;1.45;;
67065;SDS011;53978;43.846;25.952;2023-12-07T06:23:31;3.80;;;2.30;;
67065;SDS011;53978;43.846;25.952;2023-12-07T06:25:58;1.83;;;1.65;;
67065;SDS011;53978;43.846;25.952;2023-12-07T06:28:23;2.60;;;1.85;;
67065;SDS011;53978;43.846;25.952;2023-12-07T06:30:49;2.75;;;1.98;;
67065;SDS011;53978;43.846;25.952;2023-12-07T06:33:14;2.45;;;2.13;;
67065;SDS011;53978;43.846;25.952;2023-12-07T06:35:39;2.95;;;2.13;;
67065;SDS011;53978;43.846;25.952;2023-12-07T06:38:06;5.13;;;2.10;;
67065;SDS011;53978;43.846;25.952;2023-12-07T06:40:32;5.47;;;2.75;;
67065;SDS011;53978;43.846;25.952;2023-12-07T06:43:00;3.10;;;2.13;;
67065;SDS011;53978;43.846;25.952;2023-12-07T06:45:25;3.33;;;2.15;;
67065;SDS011;53978;43.846;25.952;2023-12-07T06:47:51;3.45;;;2.05;;
67065;SDS011;53978;43.846;25.952;2023-12-07T06:50:16;3.40;;;2.22;;
67065;SDS011;53978;43.846;25.952;2023-12-07T06:52:43;2.78;;;2.13;;
67065;SDS011;53978;43.846;25.952;2023-12-07T06:55:10;3.75;;;2.28;;
67065;SDS011;53978;43.846;25.952;2023-12-07T06:57:36;3.95;;;2.22;;
67065;SDS011;53978;43.846;25.952;2023-12-07T07:00:01;3.67;;;2.05;;
67065;SDS011;53978;43.846;25.952;2023-12-07T07:02:35;2.33;;;1.67;;
67065;SDS011;53978;43.846;25.952;2023-12-07T07:05:01;3.83;;;1.90;;
67065;SDS011;53978;43.846;25.952;2023-12-07T07:07:29;7.25;;;2.55;;
67065;SDS011;53978;43.846;25.952;2023-12-07T07:09:56;2.88;;;1.88;;
67065;SDS011;53978;43.846;25.952;2023-12-07T07:12:22;4.07;;;2.13;;
67065;SDS011;53978;43.846;25.952;2023-12-07T07:14:48;3.00;;;2.00;;
67065;SDS011;53978;43.846;25.952;2023-12-07T07:17:14;3.88;;;2.10;;
67065;SDS011;53978;43.846;25.952;2023-12-07T07:19:39;7.00;;;2.13;;
67065;SDS011;53978;43.846;25.952;2023-12-07T07:22:05;4.43;;;2.05;;
67065;SDS011;53978;43.846;25.952;2023-12-07T07:24:30;5.00;;;2.78;;
67065;SDS011;53978;43.846;25.952;2023-12-07T07:26:56;2.70;;;2.05;;
67065;SDS011;53978;43.846;25.952;2023-12-07T07:29:21;4.32;;;2.47;;
67065;SDS011;53978;43.846;25.952;2023-12-07T07:31:47;3.50;;;2.50;;
67065;SDS011;53978;43.846;25.952;2023-12-07T07:34:13;6.25;;;2.30;;
67065;SDS011;53978;43.846;25.952;2023-12-07T07:36:39;3.15;;;2.53;;
67065;SDS011;53978;43.846;25.952;2023-12-07T07:39:04;4.35;;;2.38;;
67065;SDS011;53978;43.846;25.952;2023-12-07T07:41:33;3.15;;;2.47;;
67065;SDS011;53978;43.846;25.952;2023-12-07T07:43:59;4.15;;;2.28;;
67065;SDS011;53978;43.846;25.952;2023-12-07T07:46:25;5.38;;;2.33;;
67065;SDS011;53978;43.846;25.952;2023-12-07T07:48:51;2.78;;;2.00;;
67065;SDS011;53978;43.846;25.952;2023-12-07T07:51:16;7.10;;;2.67;;
67065;SDS011;53978;43.846;25.952;2023-12-07T07:53:41;5.38;;;2.58;;
67065;SDS011;53978;43.846;25.952;2023-12-07T07:56:07;2.90;;;2.30;;
67065;SDS011;53978;43.846;25.952;2023-12-07T07:58:33;3.38;;;2.08;;
67065;SDS011;53978;43.846;25.952;2023-12-07T08:00:59;3.30;;;2.45;;
67065;SDS011;53978;43.846;25.952;2023-12-07T08:03:25;4.57;;;2.50;;
67065;SDS011;53978;43.846;25.952;2023-12-07T08:05:50;3.35;;;2.28;;
67065;SDS011;53978;43.846;25.952;2023-12-07T08:08:16;2.25;;;1.75;;
67065;SDS011;53978;43.846;25.952;2023-12-07T08:10:42;3.55;;;2.17;;
67065;SDS011;53978;43.846;25.952;2023-12-07T08:13:09;3.60;;;1.95;;
67065;SDS011;53978;43.846;25.952;2023-12-07T08:15:36;5.57;;;2.03;;
67065;SDS011;53978;43.846;25.952;2023-12-07T08:18:01;2.90;;;1.98;;
67065;SDS011;53978;43.846;25.952;2023-12-07T08:20:27;3.63;;;2.55;;
67065;SDS011;53978;43.846;25.952;2023-12-07T08:22:53;2.15;;;1.75;;
67065;SDS011;53978;43.846;25.952;2023-12-07T08:25:19;4.47;;;2.38;;
67065;SDS011;53978;43.846;25.952;2023-12-07T08:27:44;3.95;;;2.80;;
67065;SDS011;53978;43.846;25.952;2023-12-07T08:30:11;4.93;;;2.15;;
67065;SDS011;53978;43.846;25.952;2023-12-07T08:32:37;4.90;;;2.47;;
67065;SDS011;53978;43.846;25.952;2023-12-07T08:35:03;3.88;;;2.58;;
67065;SDS011;53978;43.846;25.952;2023-12-07T08:37:31;4.38;;;2.70;;
67065;SDS011;53978;43.846;25.952;2023-12-07T08:39:57;3.47;;;2.35;;
67065;SDS011;53978;43.846;25.952;2023-12-07T08:42:23;5.40;;;2.88;;
67065;SDS011;53978;43.846;25.952;2023-12-07T08:44:51;3.85;;;2.63;;
67065;SDS011;53978;43.846;25.952;2023-12-07T08:47:17;3.75;;;2.42;;
67065;SDS011;53978;43.846;25.952;2023-12-07T08:49:44;3.75;;;2.30;;
67065;SDS011;53978;43.846;25.952;2023-12-07T08:52:09;2.90;;;1.95;;
67065;SDS011;53978;43.846;25.952;2023-12-07T08:54:35;3.95;;;2.75;;
67065;SDS011;53978;43.846;25.952;2023-12-07T08:57:01;4.35;;;2.90;;
67065;SDS011;53978;43.846;25.952;2023-12-07T08:59:27;5.88;;;2.65;;
67065;SDS011;53978;43.846;25.952;2023-12-07T09:01:52;4.85;;;2.53;;
67065;SDS011;53978;43.846;25.952;2023-12-07T09:04:18;3.10;;;2.65;;
67065;SDS011;53978;43.846;25.952;2023-12-07T09:06:43;4.15;;;2.92;;
67065;SDS011;53978;43.846;25.952;2023-12-07T09:09:09;2.78;;;2.00;;
67065;SDS011;53978;43.846;25.952;2023-12-07T09:11:36;3.85;;;2.47;;
67065;SDS011;53978;43.846;25.952;2023-12-07T09:14:02;3.08;;;2.25;;
67065;SDS011;53978;43.846;25.952;2023-12-07T09:16:27;5.00;;;2.70;;
67065;SDS011;53978;43.846;25.952;2023-12-07T09:18:53;3.95;;;2.45;;
67065;SDS011;53978;43.846;25.952;2023-12-07T09:21:18;3.70;;;2.75;;
67065;SDS011;53978;43.846;25.952;2023-12-07T09:23:44;4.15;;;2.53;;
67065;SDS011;53978;43.846;25.952;2023-12-07T09:26:10;5.45;;;2.33;;
67065;SDS011;53978;43.846;25.952;2023-12-07T09:28:35;4.57;;;2.78;;
67065;SDS011;53978;43.846;25.952;2023-12-07T09:31:01;3.67;;;2.72;;
67065;SDS011;53978;43.846;25.952;2023-12-07T09:33:27;4.18;;;3.15;;
67065;SDS011;53978;43.846;25.952;2023-12-07T09:35:53;3.60;;;2.58;;
67065;SDS011;53978;43.846;25.952;2023-12-07T09:38:18;2.50;;;1.48;;
67065;SDS011;53978;43.846;25.952;2023-12-07T09:40:44;3.88;;;2.22;;
67065;SDS011;53978;43.846;25.952;2023-12-07T09:43:10;2.40;;;1.80;;
67065;SDS011;53978;43.846;25.952;2023-12-07T09:45:37;3.35;;;2.08;;
67065;SDS011;53978;43.846;25.952;2023-12-07T09:48:02;3.40;;;1.85;;
67065;SDS011;53978;43.846;25.952;2023-12-07T09:50:29;3.45;;;2.53;;
67065;SDS011;53978;43.846;25.952;2023-12-07T09:52:55;3.58;;;2.42;;
67065;SDS011;53978;43.846;25.952;2023-12-07T09:55:23;4.65;;;2.35;;
67065;SDS011;53978;43.846;25.952;2023-12-07T09:57:49;5.25;;;2.63;;
67065;SDS011;53978;43.846;25.952;2023-12-07T10:00:15;3.20;;;2.40;;
67065;SDS011;53978;43.846;25.952;2023-12-07T10:02:46;3.50;;;2.10;;
67065;SDS011;53978;43.846;25.952;2023-12-07T10:05:12;2.45;;;1.67;;
67065;SDS011;53978;43.846;25.952;2023-12-07T10:07:48;3.00;;;2.13;;
67065;SDS011;53978;43.846;25.952;2023-12-07T10:10:17;5.15;;;2.40;;
67065;SDS011;53978;43.846;25.952;2023-12-07T10:15:17;2.88;;;2.30;;
67065;SDS011;53978;43.846;25.952;2023-12-07T10:17:52;3.28;;;2.55;;
67065;SDS011;53978;43.846;25.952;2023-12-07T10:20:19;3.28;;;2.10;;
67065;SDS011;53978;43.846;25.952;2023-12-07T10:23:09;2.38;;;1.98;;
67065;SDS011;53978;43.846;25.952;2023-12-07T10:25:35;4.70;;;2.45;;
67065;SDS011;53978;43.846;25.952;2023-12-07T10:28:02;3.60;;;2.70;;
67065;SDS011;53978;43.846;25.952;2023-12-07T10:30:36;3.22;;;2.10;;
67065;SDS011;53978;43.846;25.952;2023-12-07T10:33:03;5.15;;;2.33;;
67065;SDS011;53978;43.846;25.952;2023-12-07T10:35:41;4.13;;;2.67;;
67065;SDS011;53978;43.846;25.952;2023-12-07T10:38:10;5.70;;;3.00;;
67065;SDS011;53978;43.846;25.952;2023-12-07T10:40:36;3.47;;;2.60;;
67065;SDS011;53978;43.846;25.952;2023-12-07T10:43:04;3.45;;;2.33;;
67065;SDS011;53978;43.846;25.952;2023-12-07T10:45:31;5.25;;;3.00;;
67065;SDS011;53978;43.846;25.952;2023-12-07T10:48:01;2.30;;;1.85;;
67065;SDS011;53978;43.846;25.952;2023-12-07T10:50:30;2.13;;;1.92;;
67065;SDS011;53978;43.846;25.952;2023-12-07T10:53:11;3.40;;;2.50;;
67065;SDS011;53978;43.846;25.952;2023-12-07T10:55:49;3.08;;;2.22;;
67065;SDS011;53978;43.846;25.952;2023-12-07T10:58:18;6.27;;;2.80;;
67065;SDS011;53978;43.846;25.952;2023-12-07T11:00:44;2.75;;;2.40;;
67065;SDS011;53978;43.846;25.952;2023-12-07T11:03:16;5.30;;;2.83;;
67065;SDS011;53978;43.846;25.952;2023-12-07T11:05:46;3.80;;;2.97;;
67065;SDS011;53978;43.846;25.952;2023-12-07T11:08:15;3.35;;;2.53;;
67065;SDS011;53978;43.846;25.952;2023-12-07T11:11:07;2.67;;;2.20;;
67065;SDS011;53978;43.846;25.952;2023-12-07T11:13:37;5.15;;;2.78;;
67065;SDS011;53978;43.846;25.952;2023-12-07T11:16:06;4.10;;;2.40;;
67065;SDS011;53978;43.846;25.952;2023-12-07T11:18:32;5.32;;;3.22;;
67065;SDS011;53978;43.846;25.952;2023-12-07T11:20:57;3.22;;;2.63;;
67065;SDS011;53978;43.846;25.952;2023-12-07T11:23:23;2.85;;;2.17;;
67065;SDS011;53978;43.846;25.952;2023-12-07T11:25:52;2.65;;;2.08;;
67065;SDS011;53978;43.846;25.952;2023-12-07T11:28:18;5.20;;;2.72;;
67065;SDS011;53978;43.846;25.952;2023-12-07T11:31:00;3.50;;;2.58;;
67065;SDS011;53978;43.846;25.952;2023-12-07T11:33:26;3.85;;;2.40;;
67065;SDS011;53978;43.846;25.952;2023-12-07T11:36:04;4.20;;;2.63;;
67065;SDS011;53978;43.846;25.952;2023-12-07T11:38:31;2.38;;;1.92;;
67065;SDS011;53978;43.846;25.952;2023-12-07T11:40:56;2.03;;;1.70;;
67065;SDS011;53978;43.846;25.952;2023-12-07T11:43:35;4.93;;;2.58;;
67065;SDS011;53978;43.846;25.952;2023-12-07T11:46:22;2.50;;;1.90;;
67065;SDS011;53978;43.846;25.952;2023-12-07T11:48:48;4.65;;;2.80;;
67065;SDS011;53978;43.846;25.952;2023-12-07T11:51:15;5.00;;;2.40;;
67065;SDS011;53978;43.846;25.952;2023-12-07T11:53:41;2.97;;;2.08;;
67065;SDS011;53978;43.846;25.952;2023-12-07T11:56:07;3.20;;;2.10;;
67065;SDS011;53978;43.846;25.952;2023-12-07T11:58:38;2.88;;;2.13;;
67065;SDS011;53978;43.846;25.952;2023-12-07T12:01:04;3.42;;;2.00;;
67065;SDS011;53978;43.846;25.952;2023-12-07T12:03:34;4.00;;;2.40;;
67065;SDS011;53978;43.846;25.952;2023-12-07T12:06:03;3.60;;;2.83;;
67065;SDS011;53978;43.846;25.952;2023-12-07T12:08:30;6.82;;;3.28;;
67065;SDS011;53978;43.846;25.952;2023-12-07T12:10:56;3.70;;;2.38;;
67065;SDS011;53978;43.846;25.952;2023-12-07T12:13:29;4.13;;;2.72;;
67065;SDS011;53978;43.846;25.952;2023-12-07T12:15:58;5.03;;;2.90;;
67065;SDS011;53978;43.846;25.952;2023-12-07T12:18:24;4.63;;;2.42;;
67065;SDS011;53978;43.846;25.952;2023-12-07T12:20:51;4.35;;;2.30;;
67065;SDS011;53978;43.846;25.952;2023-12-07T12:23:17;2.80;;;2.22;;
67065;SDS011;53978;43.846;25.952;2023-12-07T12:25:42;3.75;;;2.58;;
67065;SDS011;53978;43.846;25.952;2023-12-07T12:28:09;3.53;;;2.35;;
67065;SDS011;53978;43.846;25.952;2023-12-07T12:30:36;4.82;;;2.88;;
67065;SDS011;53978;43.846;25.952;2023-12-07T12:33:02;4.18;;;2.70;;
67065;SDS011;53978;43.846;25.952;2023-12-07T12:35:28;3.97;;;2.33;;
67065;SDS011;53978;43.846;25.952;2023-12-07T12:37:54;3.90;;;2.47;;
67065;SDS011;53978;43.846;25.952;2023-12-07T12:40:23;4.82;;;2.90;;
67065;SDS011;53978;43.846;25.952;2023-12-07T12:42:50;5.28;;;2.80;;
67065;SDS011;53978;43.846;25.952;2023-12-07T12:45:17;2.90;;;2.33;;
67065;SDS011;53978;43.846;25.952;2023-12-07T12:47:44;5.78;;;2.67;;
67065;SDS011;53978;43.846;25.952;2023-12-07T12:50:11;4.93;;;3.08;;
67065;SDS011;53978;43.846;25.952;2023-12-07T12:52:41;3.08;;;2.17;;
67065;SDS011;53978;43.846;25.952;2023-12-07T12:55:10;4.35;;;2.50;;
67065;SDS011;53978;43.846;25.952;2023-12-07T12:57:35;3.50;;;2.53;;
67065;SDS011;53978;43.846;25.952;2023-12-07T13:00:02;4.68;;;2.28;;
67065;SDS011;53978;43.846;25.952;2023-12-07T13:02:28;3.55;;;2.65;;
67065;SDS011;53978;43.846;25.952;2023-12-07T13:04:59;3.67;;;2.60;;
67065;SDS011;53978;43.846;25.952;2023-12-07T13:07:24;6.68;;;2.60;;
67065;SDS011;53978;43.846;25.952;2023-12-07T13:09:51;6.50;;;3.05;;
67065;SDS011;53978;43.846;25.952;2023-12-07T13:12:16;3.08;;;2.35;;
67065;SDS011;53978;43.846;25.952;2023-12-07T13:14:44;6.18;;;2.78;;
67065;SDS011;53978;43.846;25.952;2023-12-07T13:17:11;4.88;;;2.92;;
67065;SDS011;53978;43.846;25.952;2023-12-07T13:19:36;9.07;;;3.10;;
67065;SDS011;53978;43.846;25.952;2023-12-07T13:22:02;9.05;;;2.15;;
67065;SDS011;53978;43.846;25.952;2023-12-07T13:24:28;6.25;;;3.78;;
67065;SDS011;53978;43.846;25.952;2023-12-07T13:26:54;5.38;;;3.45;;
67065;SDS011;53978;43.846;25.952;2023-12-07T13:29:19;4.35;;;2.97;;
67065;SDS011;53978;43.846;25.952;2023-12-07T13:31:46;5.65;;;3.38;;
67065;SDS011;53978;43.846;25.952;2023-12-07T13:34:14;3.22;;;2.60;;
67065;SDS011;53978;43.846;25.952;2023-12-07T13:36:39;6.50;;;3.22;;
67065;SDS011;53978;43.846;25.952;2023-12-07T13:39:05;6.28;;;3.55;;
67065;SDS011;53978;43.846;25.952;2023-12-07T13:41:30;4.53;;;3.08;;
67065;SDS011;53978;43.846;25.952;2023-12-07T13:43:56;4.65;;;2.78;;
67065;SDS011;53978;43.846;25.952;2023-12-07T13:46:23;3.63;;;2.53;;
67065;SDS011;53978;43.846;25.952;2023-12-07T13:48:49;5.30;;;2.53;;
67065;SDS011;53978;43.846;25.952;2023-12-07T13:51:17;4.10;;;2.83;;
67065;SDS011;53978;43.846;25.952;2023-12-07T13:53:43;3.35;;;2.50;;
67065;SDS011;53978;43.846;25.952;2023-12-07T13:56:08;6.15;;;2.92;;
67065;SDS011;53978;43.846;25.952;2023-12-07T13:58:34;7.43;;;4.05;;
67065;SDS011;53978;43.846;25.952;2023-12-07T14:01:00;7.93;;;3.97;;
67065;SDS011;53978;43.846;25.952;2023-12-07T14:03:27;8.52;;;4.05;;
67065;SDS011;53978;43.846;25.952;2023-12-07T14:05:52;8.07;;;4.53;;
67065;SDS011;53978;43.846;25.952;2023-12-07T14:08:18;7.03;;;3.63;;
67065;SDS011;53978;43.846;25.952;2023-12-07T14:10:44;6.88;;;4.00;;
67065;SDS011;53978;43.846;25.952;2023-12-07T14:13:11;9.45;;;4.15;;
67065;SDS011;53978;43.846;25.952;2023-12-07T14:15:38;4.70;;;3.40;;
67065;SDS011;53978;43.846;25.952;2023-12-07T14:18:06;6.70;;;3.70;;
67065;SDS011;53978;43.846;25.952;2023-12-07T14:20:32;9.55;;;4.43;;
67065;SDS011;53978;43.846;25.952;2023-12-07T14:22:58;6.05;;;3.80;;
67065;SDS011;53978;43.846;25.952;2023-12-07T14:25:29;5.97;;;3.17;;
67065;SDS011;53978;43.846;25.952;2023-12-07T14:27:54;18.33;;;5.50;;
67065;SDS011;53978;43.846;25.952;2023-12-07T14:30:24;8.52;;;4.35;;
67065;SDS011;53978;43.846;25.952;2023-12-07T14:32:50;6.82;;;3.70;;
67065;SDS011;53978;43.846;25.952;2023-12-07T14:35:17;8.88;;;4.40;;